Главная страница
METAR-TAF:

METAR-TAF

Аэропорты :

Вашингтон, Пенсильвания, США

широта: 40-08N, долгота: 080-17W, высота над уровнем моря: 361 м

Текущие метеонаблюдения

Эта сводка был подготовлена 1 час и 27 минут назад, в 00:56 UTC
Ветер 3 Узел от юго-западный
Температура -15°C
Влажность 78%
Давление 1036 hPa
Видимость: 16.1 км
ясное небо

METAR: KAFJ 220056Z AUTO 23003KT 10SM CLR M15/M18 A3059 RMK AO2 SLP389 T11501178 FZRANO

Время: 21:23 (02:23 UTC)


TAF: отсутствует

Метеонаблюдения и прогнозы для более 4000 аэропортов (сводки METAR и TAF).

Имеющиеся станции представлены на карте желтыми и красными точками.

Чтобы увидеть название станции, наведите на нее мышь.

Затем щелкните, чтобы увидеть метеонаблюдения и метеопрогнозы.

Управление картой: чтобы увеличить масштаб, щелкните зеленые кнопки с черным крестиком; чтобы уменьшить масштаб, щелкните зеленую кнопку с тире; для просмотра соседних карт щелкайте зеленые стрелки.


METAR-TAF: